sensor_id;sensor_type;location;lat;lon;timestamp;pressure;altitude;pressure_sealevel;temperature;humidity
76156;BME280;64906;51.290;7.348;2024-03-02T00:02:12;97259.09;;;11.87;50.05
76156;BME280;64906;51.290;7.348;2024-03-02T00:04:38;97259.91;;;11.87;50.08
76156;BME280;64906;51.290;7.348;2024-03-02T00:07:04;97261.50;;;11.88;50.03
76156;BME280;64906;51.290;7.348;2024-03-02T00:09:29;97261.50;;;11.88;50.21
76156;BME280;64906;51.290;7.348;2024-03-02T00:11:54;97249.09;;;11.87;50.01
76156;BME280;64906;51.290;7.348;2024-03-02T00:14:20;97254.22;;;11.89;49.99
76156;BME280;64906;51.290;7.348;2024-03-02T00:16:45;97254.75;;;11.91;49.98
76156;BME280;64906;51.290;7.348;2024-03-02T00:19:11;97250.69;;;11.88;50.38
76156;BME280;64906;51.290;7.348;2024-03-02T00:21:36;97249.09;;;11.87;50.14
76156;BME280;64906;51.290;7.348;2024-03-02T00:24:18;97251.50;;;11.89;50.24
76156;BME280;64906;51.290;7.348;2024-03-02T00:26:46;97243.97;;;11.86;50.11
76156;BME280;64906;51.290;7.348;2024-03-02T00:29:15;97253.41;;;11.88;50.10
76156;BME280;64906;51.290;7.348;2024-03-02T00:31:41;97248.28;;;11.87;50.14
76156;BME280;64906;51.290;7.348;2024-03-02T00:34:06;97245.28;;;11.88;50.12
76156;BME280;64906;51.290;7.348;2024-03-02T00:36:32;97252.63;;;11.88;50.05
76156;BME280;64906;51.290;7.348;2024-03-02T00:38:58;97240.44;;;11.85;50.09
76156;BME280;64906;51.290;7.348;2024-03-02T00:41:25;97246.66;;;11.86;50.03
76156;BME280;64906;51.290;7.348;2024-03-02T00:44:01;97231.25;;;11.86;50.20
76156;BME280;64906;51.290;7.348;2024-03-02T00:46:33;97230.44;;;11.86;50.06
76156;BME280;64906;51.290;7.348;2024-03-02T00:49:00;97235.28;;;11.89;50.01
76156;BME280;64906;51.290;7.348;2024-03-02T00:51:28;97228.56;;;11.81;50.25
76156;BME280;64906;51.290;7.348;2024-03-02T00:53:55;97232.59;;;11.84;50.10
76156;BME280;64906;51.290;7.348;2024-03-02T00:56:22;97228.56;;;11.81;50.33
76156;BME280;64906;51.290;7.348;2024-03-02T00:58:47;97228.56;;;11.81;50.28
76156;BME280;64906;51.290;7.348;2024-03-02T01:01:13;97215.31;;;11.80;50.24
76156;BME280;64906;51.290;7.348;2024-03-02T01:03:39;97222.59;;;11.84;50.21
76156;BME280;64906;51.290;7.348;2024-03-02T01:06:04;97210.16;;;11.83;50.25
76156;BME280;64906;51.290;7.348;2024-03-02T01:08:30;97208.53;;;11.82;50.12
76156;BME280;64906;51.290;7.348;2024-03-02T01:10:55;97209.09;;;11.84;50.26
76156;BME280;64906;51.290;7.348;2024-03-02T01:13:22;97211.78;;;11.84;50.09
76156;BME280;64906;51.290;7.348;2024-03-02T01:15:48;97204.50;;;11.80;50.19
76156;BME280;64906;51.290;7.348;2024-03-02T01:18:14;97195.03;;;11.82;50.25
76156;BME280;64906;51.290;7.348;2024-03-02T01:20:39;97197.19;;;11.85;50.21
76156;BME280;64906;51.290;7.348;2024-03-02T01:23:04;97205.00;;;11.87;50.19
76156;BME280;64906;51.290;7.348;2024-03-02T01:25:29;97214.78;;;11.83;50.30
76156;BME280;64906;51.290;7.348;2024-03-02T01:27:55;97220.19;;;11.83;50.21
76156;BME280;64906;51.290;7.348;2024-03-02T01:30:20;97210.44;;;11.82;50.09
76156;BME280;64906;51.290;7.348;2024-03-02T01:32:46;97206.38;;;11.84;50.25
76156;BME280;64906;51.290;7.348;2024-03-02T01:35:12;97212.84;;;11.83;50.23
76156;BME280;64906;51.290;7.348;2024-03-02T01:37:37;97213.94;;;11.82;50.30
76156;BME280;64906;51.290;7.348;2024-03-02T01:40:03;97204.50;;;11.85;50.08
76156;BME280;64906;51.290;7.348;2024-03-02T01:42:33;97219.91;;;11.84;50.20
76156;BME280;64906;51.290;7.348;2024-03-02T01:44:59;97216.94;;;11.81;50.12
76156;BME280;64906;51.290;7.348;2024-03-02T01:47:25;97206.94;;;11.81;49.92
76156;BME280;64906;51.290;7.348;2024-03-02T01:49:50;97206.94;;;11.81;50.60
76156;BME280;64906;51.290;7.348;2024-03-02T01:52:15;97218.81;;;11.80;50.21
76156;BME280;64906;51.290;7.348;2024-03-02T01:54:41;97209.38;;;11.83;50.45
76156;BME280;64906;51.290;7.348;2024-03-02T01:57:06;97196.63;;;11.83;50.11
76156;BME280;64906;51.290;7.348;2024-03-02T01:59:32;97190.72;;;11.81;50.11
76156;BME280;64906;51.290;7.348;2024-03-02T02:01:57;97195.59;;;11.79;50.21
76156;BME280;64906;51.290;7.348;2024-03-02T02:04:22;97208.53;;;11.82;50.28
76156;BME280;64906;51.290;7.348;2024-03-02T02:06:52;97198.28;;;11.79;50.26
76156;BME280;64906;51.290;7.348;2024-03-02T02:09:17;97190.72;;;11.81;50.12
76156;BME280;64906;51.290;7.348;2024-03-02T02:11:43;97193.16;;;11.83;50.12
76156;BME280;64906;51.290;7.348;2024-03-02T02:14:08;97193.16;;;11.83;50.09
76156;BME280;64906;51.290;7.348;2024-03-02T02:16:33;97189.09;;;11.80;50.17
76156;BME280;64906;51.290;7.348;2024-03-02T02:18:59;97188.53;;;11.83;50.08
76156;BME280;64906;51.290;7.348;2024-03-02T02:21:24;97179.91;;;11.81;50.32
76156;BME280;64906;51.290;7.348;2024-03-02T02:23:50;97179.63;;;11.78;50.24
76156;BME280;64906;51.290;7.348;2024-03-02T02:26:15;97182.34;;;11.83;50.27
76156;BME280;64906;51.290;7.348;2024-03-02T02:28:40;97182.06;;;11.79;50.24
76156;BME280;64906;51.290;7.348;2024-03-02T02:31:12;97178.81;;;11.82;50.06
76156;BME280;64906;51.290;7.348;2024-03-02T02:33:39;97178.81;;;11.82;49.98
76156;BME280;64906;51.290;7.348;2024-03-02T02:36:05;97184.75;;;11.84;49.96
76156;BME280;64906;51.290;7.348;2024-03-02T02:38:35;97178.25;;;11.85;50.01
76156;BME280;64906;51.290;7.348;2024-03-02T02:41:02;97170.69;;;11.82;50.01
76156;BME280;64906;51.290;7.348;2024-03-02T02:43:27;97175.28;;;11.82;50.12
76156;BME280;64906;51.290;7.348;2024-03-02T02:45:52;97170.69;;;11.87;50.06
76156;BME280;64906;51.290;7.348;2024-03-02T02:48:18;97162.59;;;11.82;50.01
76156;BME280;64906;51.290;7.348;2024-03-02T02:50:43;97173.94;;;11.84;50.12
76156;BME280;64906;51.290;7.348;2024-03-02T02:53:08;97167.72;;;11.84;49.95
76156;BME280;64906;51.290;7.348;2024-03-02T02:55:35;97163.94;;;11.85;50.03
76156;BME280;64906;51.290;7.348;2024-03-02T02:58:08;97168.53;;;11.84;49.99
76156;BME280;64906;51.290;7.348;2024-03-02T03:00:33;97170.13;;;11.85;49.90
76156;BME280;64906;51.290;7.348;2024-03-02T03:02:58;97171.50;;;11.88;49.86
76156;BME280;64906;51.290;7.348;2024-03-02T03:05:24;97172.84;;;11.85;50.12
76156;BME280;64906;51.290;7.348;2024-03-02T03:07:49;97173.94;;;11.84;49.88
76156;BME280;64906;51.290;7.348;2024-03-02T03:10:15;97172.06;;;11.85;49.94
76156;BME280;64906;51.290;7.348;2024-03-02T03:12:42;97169.34;;;11.85;50.19
76156;BME280;64906;51.290;7.348;2024-03-02T03:15:09;97168.00;;;11.82;49.96
76156;BME280;64906;51.290;7.348;2024-03-02T03:17:34;97170.69;;;11.87;50.09
76156;BME280;64906;51.290;7.348;2024-03-02T03:20:00;97169.59;;;11.88;50.01
76156;BME280;64906;51.290;7.348;2024-03-02T03:22:26;97169.31;;;11.90;49.88
76156;BME280;64906;51.290;7.348;2024-03-02T03:24:51;97170.13;;;11.85;49.89
76156;BME280;64906;51.290;7.348;2024-03-02T03:27:17;97174.19;;;11.88;50.05
76156;BME280;64906;51.290;7.348;2024-03-02T03:29:42;97175.28;;;11.87;49.78
76156;BME280;64906;51.290;7.348;2024-03-02T03:32:07;97176.63;;;11.89;49.97
76156;BME280;64906;51.290;7.348;2024-03-02T03:34:33;97176.63;;;11.89;49.82
76156;BME280;64906;51.290;7.348;2024-03-02T03:36:58;97182.81;;;11.90;50.04
76156;BME280;64906;51.290;7.348;2024-03-02T03:39:24;97186.88;;;11.92;49.70
76156;BME280;64906;51.290;7.348;2024-03-02T03:41:49;97186.88;;;11.92;49.96
76156;BME280;64906;51.290;7.348;2024-03-02T03:44:14;97182.56;;;11.91;49.68
76156;BME280;64906;51.290;7.348;2024-03-02T03:46:40;97193.41;;;11.91;49.70
76156;BME280;64906;51.290;7.348;2024-03-02T03:49:05;97186.06;;;11.92;49.63
76156;BME280;64906;51.290;7.348;2024-03-02T03:51:30;97187.44;;;11.89;49.83
76156;BME280;64906;51.290;7.348;2024-03-02T03:53:56;97192.84;;;11.94;49.94
76156;BME280;64906;51.290;7.348;2024-03-02T03:56:21;97186.59;;;11.94;49.92
76156;BME280;64906;51.290;7.348;2024-03-02T03:58:46;97194.44;;;11.95;49.75
76156;BME280;64906;51.290;7.348;2024-03-02T04:01:11;97187.44;;;11.94;49.54
76156;BME280;64906;51.290;7.348;2024-03-02T04:03:38;97186.06;;;11.97;49.61
76156;BME280;64906;51.290;7.348;2024-03-02T04:06:03;97184.72;;;11.94;49.74
76156;BME280;64906;51.290;7.348;2024-03-02T04:08:28;97186.06;;;11.97;49.80
76156;BME280;64906;51.290;7.348;2024-03-02T04:10:54;97182.53;;;11.96;49.56
76156;BME280;64906;51.290;7.348;2024-03-02T04:13:19;97189.56;;;11.97;49.70
76156;BME280;64906;51.290;7.348;2024-03-02T04:15:44;97187.69;;;11.98;49.72
76156;BME280;64906;51.290;7.348;2024-03-02T04:18:09;97185.78;;;11.98;49.27
76156;BME280;64906;51.290;7.348;2024-03-02T04:20:35;97189.28;;;11.99;49.59
76156;BME280;64906;51.290;7.348;2024-03-02T04:23:00;97199.84;;;11.95;49.95
76156;BME280;64906;51.290;7.348;2024-03-02T04:25:25;97193.34;;;11.96;49.71
76156;BME280;64906;51.290;7.348;2024-03-02T04:27:51;97189.56;;;11.97;49.62
76156;BME280;64906;51.290;7.348;2024-03-02T04:30:16;97191.47;;;11.97;49.72
76156;BME280;64906;51.290;7.348;2024-03-02T04:32:42;97194.16;;;11.97;49.52
76156;BME280;64906;51.290;7.348;2024-03-02T04:35:11;97193.34;;;11.96;49.65
76156;BME280;64906;51.290;7.348;2024-03-02T04:37:36;97195.25;;;12.01;49.47
76156;BME280;64906;51.290;7.348;2024-03-02T04:40:01;97183.63;;;12.00;49.53
76156;BME280;64906;51.290;7.348;2024-03-02T04:42:27;97194.44;;;12.00;49.64
76156;BME280;64906;51.290;7.348;2024-03-02T04:44:52;97188.75;;;11.97;49.85
76156;BME280;64906;51.290;7.348;2024-03-02T04:47:17;97190.63;;;12.01;49.71
76156;BME280;64906;51.290;7.348;2024-03-02T04:49:42;97204.72;;;11.98;49.94
76156;BME280;64906;51.290;7.348;2024-03-02T04:52:08;97205.25;;;12.00;49.67
76156;BME280;64906;51.290;7.348;2024-03-02T04:54:34;97203.09;;;12.02;49.67
76156;BME280;64906;51.290;7.348;2024-03-02T04:57:19;97209.28;;;12.03;49.61
76156;BME280;64906;51.290;7.348;2024-03-02T04:59:44;97219.03;;;11.99;49.53
76156;BME280;64906;51.290;7.348;2024-03-02T05:02:10;97222.84;;;11.98;49.69
76156;BME280;64906;51.290;7.348;2024-03-02T05:04:35;97220.38;;;11.96;49.63
76156;BME280;64906;51.290;7.348;2024-03-02T05:07:00;97231.47;;;11.95;49.57
76156;BME280;64906;51.290;7.348;2024-03-02T05:09:25;97224.19;;;11.95;49.86
76156;BME280;64906;51.290;7.348;2024-03-02T05:11:51;97232.84;;;11.97;49.99
76156;BME280;64906;51.290;7.348;2024-03-02T05:14:36;97234.19;;;11.95;49.83
76156;BME280;64906;51.290;7.348;2024-03-02T05:17:02;97234.75;;;11.92;49.91
76156;BME280;64906;51.290;7.348;2024-03-02T05:19:27;97236.88;;;11.95;49.67
76156;BME280;64906;51.290;7.348;2024-03-02T05:21:52;97239.09;;;11.93;49.78
76156;BME280;64906;51.290;7.348;2024-03-02T05:24:18;97241.50;;;11.94;49.71
76156;BME280;64906;51.290;7.348;2024-03-02T05:26:43;97244.75;;;11.91;49.71
76156;BME280;64906;51.290;7.348;2024-03-02T05:29:08;97244.50;;;11.88;49.84
76156;BME280;64906;51.290;7.348;2024-03-02T05:31:34;97238.00;;;11.89;49.83
76156;BME280;64906;51.290;7.348;2024-03-02T05:33:59;97243.94;;;11.91;49.78
76156;BME280;64906;51.290;7.348;2024-03-02T05:36:24;97246.66;;;11.91;49.83
76156;BME280;64906;51.290;7.348;2024-03-02T05:38:50;97237.44;;;11.87;49.85
76156;BME280;64906;51.290;7.348;2024-03-02T05:41:15;97242.88;;;11.87;49.86
76156;BME280;64906;51.290;7.348;2024-03-02T05:43:40;97245.84;;;11.85;50.10
76156;BME280;64906;51.290;7.348;2024-03-02T05:46:05;97248.81;;;11.84;50.03
76156;BME280;64906;51.290;7.348;2024-03-02T05:48:31;97247.47;;;11.86;49.86
76156;BME280;64906;51.290;7.348;2024-03-02T05:50:56;97251.25;;;11.85;49.76
76156;BME280;64906;51.290;7.348;2024-03-02T05:53:21;97245.56;;;11.82;50.13
76156;BME280;64906;51.290;7.348;2024-03-02T05:55:47;97245.56;;;11.82;50.00
76156;BME280;64906;51.290;7.348;2024-03-02T05:58:12;97249.91;;;11.78;50.01
76156;BME280;64906;51.290;7.348;2024-03-02T06:00:51;97242.63;;;11.78;50.18
76156;BME280;64906;51.290;7.348;2024-03-02T06:03:16;97232.59;;;11.79;50.15
76156;BME280;64906;51.290;7.348;2024-03-02T06:05:41;97233.16;;;11.81;49.98
76156;BME280;64906;51.290;7.348;2024-03-02T06:08:06;97236.69;;;11.76;50.19
76156;BME280;64906;51.290;7.348;2024-03-02T06:10:32;97241.00;;;11.77;50.18
76156;BME280;64906;51.290;7.348;2024-03-02T06:12:57;97232.88;;;11.77;50.17
76156;BME280;64906;51.290;7.348;2024-03-02T06:15:24;97238.28;;;11.77;50.08
76156;BME280;64906;51.290;7.348;2024-03-02T06:17:49;97228.56;;;11.76;50.24
76156;BME280;64906;51.290;7.348;2024-03-02T06:20:14;97228.28;;;11.78;50.16
76156;BME280;64906;51.290;7.348;2024-03-02T06:22:40;97228.03;;;11.79;50.04
76156;BME280;64906;51.290;7.348;2024-03-02T06:25:05;97235.59;;;11.77;50.00
76156;BME280;64906;51.290;7.348;2024-03-02T06:27:30;97232.88;;;11.77;50.08
76156;BME280;64906;51.290;7.348;2024-03-02T06:29:56;97233.16;;;11.76;50.25
76156;BME280;64906;51.290;7.348;2024-03-02T06:32:21;97231.53;;;11.80;50.00
76156;BME280;64906;51.290;7.348;2024-03-02T06:34:48;97247.50;;;11.81;49.92
76156;BME280;64906;51.290;7.348;2024-03-02T06:37:13;97246.13;;;11.79;49.88
76156;BME280;64906;51.290;7.348;2024-03-02T06:39:38;97246.94;;;11.79;49.97
76156;BME280;64906;51.290;7.348;2024-03-02T06:42:04;97255.59;;;11.81;50.00
76156;BME280;64906;51.290;7.348;2024-03-02T06:44:29;97251.81;;;11.82;49.92
76156;BME280;64906;51.290;7.348;2024-03-02T06:46:54;97265.31;;;11.87;49.91
76156;BME280;64906;51.290;7.348;2024-03-02T06:49:19;97273.16;;;11.89;49.86
76156;BME280;64906;51.290;7.348;2024-03-02T06:51:45;97263.41;;;11.93;49.82
76156;BME280;64906;51.290;7.348;2024-03-02T06:54:10;97270.72;;;11.92;49.78
76156;BME280;64906;51.290;7.348;2024-03-02T06:56:35;97274.22;;;11.93;49.79
76156;BME280;64906;51.290;7.348;2024-03-02T06:59:01;97273.13;;;11.94;49.66
76156;BME280;64906;51.290;7.348;2024-03-02T07:01:26;97269.63;;;11.93;49.58
76156;BME280;64906;51.290;7.348;2024-03-02T07:03:51;97272.03;;;11.95;49.64
76156;BME280;64906;51.290;7.348;2024-03-02T07:06:17;97274.75;;;11.95;49.54
76156;BME280;64906;51.290;7.348;2024-03-02T07:08:42;97272.84;;;12.00;49.52
76156;BME280;64906;51.290;7.348;2024-03-02T07:11:08;97274.47;;;12.01;49.58
76156;BME280;64906;51.290;7.348;2024-03-02T07:13:33;97273.13;;;11.99;49.11
76156;BME280;64906;51.290;7.348;2024-03-02T07:15:58;97279.59;;;12.03;49.26
76156;BME280;64906;51.290;7.348;2024-03-02T07:18:30;97274.44;;;12.06;49.42
76156;BME280;64906;51.290;7.348;2024-03-02T07:20:59;97280.69;;;12.07;49.35
76156;BME280;64906;51.290;7.348;2024-03-02T07:23:26;97268.75;;;12.08;49.39
76156;BME280;64906;51.290;7.348;2024-03-02T07:25:53;97285.81;;;12.08;49.27
76156;BME280;64906;51.290;7.348;2024-03-02T07:28:21;97278.53;;;12.09;49.38
76156;BME280;64906;51.290;7.348;2024-03-02T07:30:46;97271.47;;;12.08;49.28
76156;BME280;64906;51.290;7.348;2024-03-02T07:33:12;97278.78;;;12.07;49.31
76156;BME280;64906;51.290;7.348;2024-03-02T07:35:37;97279.31;;;12.09;49.42
76156;BME280;64906;51.290;7.348;2024-03-02T07:38:02;97286.34;;;12.10;49.38
76156;BME280;64906;51.290;7.348;2024-03-02T07:40:28;97287.97;;;12.11;49.20
76156;BME280;64906;51.290;7.348;2024-03-02T07:42:53;97285.53;;;12.15;49.10
76156;BME280;64906;51.290;7.348;2024-03-02T07:45:18;97287.94;;;12.16;49.12
76156;BME280;64906;51.290;7.348;2024-03-02T07:47:44;97293.09;;;12.18;49.05
76156;BME280;64906;51.290;7.348;2024-03-02T07:50:09;97293.91;;;12.18;49.08
76156;BME280;64906;51.290;7.348;2024-03-02T07:52:35;97306.34;;;12.19;48.90
76156;BME280;64906;51.290;7.348;2024-03-02T07:55:00;97306.34;;;12.19;49.02
76156;BME280;64906;51.290;7.348;2024-03-02T07:57:25;97312.81;;;12.24;49.05
76156;BME280;64906;51.290;7.348;2024-03-02T07:59:51;97312.00;;;12.23;49.00
76156;BME280;64906;51.290;7.348;2024-03-02T08:02:16;97319.34;;;12.23;48.95
76156;BME280;64906;51.290;7.348;2024-03-02T08:04:42;97318.50;;;12.27;48.88
76156;BME280;64906;51.290;7.348;2024-03-02T08:07:07;97318.22;;;12.29;48.73
76156;BME280;64906;51.290;7.348;2024-03-02T08:09:34;97317.69;;;12.27;48.86
76156;BME280;64906;51.290;7.348;2024-03-02T08:11:59;97315.53;;;12.29;48.75
76156;BME280;64906;51.290;7.348;2024-03-02T08:14:25;97321.75;;;12.29;48.97
76156;BME280;64906;51.290;7.348;2024-03-02T08:16:50;97329.59;;;12.31;48.73
76156;BME280;64906;51.290;7.348;2024-03-02T08:19:15;97325.25;;;12.35;48.82
76156;BME280;64906;51.290;7.348;2024-03-02T08:21:42;97320.38;;;12.37;48.80
76156;BME280;64906;51.290;7.348;2024-03-02T08:24:08;97316.06;;;12.36;48.66
76156;BME280;64906;51.290;7.348;2024-03-02T08:26:33;97319.53;;;12.41;48.56
76156;BME280;64906;51.290;7.348;2024-03-02T08:28:59;97318.19;;;12.44;48.35
76156;BME280;64906;51.290;7.348;2024-03-02T08:31:27;97312.75;;;12.49;48.34
76156;BME280;64906;51.290;7.348;2024-03-02T08:33:52;97312.47;;;12.55;48.26
76156;BME280;64906;51.290;7.348;2024-03-02T08:36:18;97313.22;;;12.61;48.12
76156;BME280;64906;51.290;7.348;2024-03-02T08:38:44;97308.91;;;12.60;47.89
76156;BME280;64906;51.290;7.348;2024-03-02T08:41:09;97325.44;;;12.58;48.01
76156;BME280;64906;51.290;7.348;2024-03-02T08:43:34;97321.38;;;12.56;48.05
76156;BME280;64906;51.290;7.348;2024-03-02T08:46:00;97323.81;;;12.57;48.17
76156;BME280;64906;51.290;7.348;2024-03-02T08:48:25;97317.03;;;12.60;48.00
76156;BME280;64906;51.290;7.348;2024-03-02T08:50:50;97320.28;;;12.62;47.96
76156;BME280;64906;51.290;7.348;2024-03-02T08:53:16;97324.59;;;12.68;47.88
76156;BME280;64906;51.290;7.348;2024-03-02T08:55:47;97331.09;;;12.67;47.91
76156;BME280;64906;51.290;7.348;2024-03-02T08:58:12;97328.09;;;12.73;47.91
76156;BME280;64906;51.290;7.348;2024-03-02T09:00:38;97332.69;;;12.73;47.64
76156;BME280;64906;51.290;7.348;2024-03-02T09:03:03;97332.44;;;12.69;47.90
76156;BME280;64906;51.290;7.348;2024-03-02T09:05:29;97331.31;;;12.70;47.81
76156;BME280;64906;51.290;7.348;2024-03-02T09:07:54;97332.41;;;12.74;47.67
76156;BME280;64906;51.290;7.348;2024-03-02T09:10:20;97337.53;;;12.76;47.67
76156;BME280;64906;51.290;7.348;2024-03-02T09:12:45;97334.81;;;12.81;47.60
76156;BME280;64906;51.290;7.348;2024-03-02T09:15:11;97329.41;;;12.81;47.54
76156;BME280;64906;51.290;7.348;2024-03-02T09:17:36;97340.50;;;12.84;47.49
76156;BME280;64906;51.290;7.348;2024-03-02T09:20:01;97335.91;;;12.85;47.59
76156;BME280;64906;51.290;7.348;2024-03-02T09:22:29;97337.47;;;12.91;47.32
76156;BME280;64906;51.290;7.348;2024-03-02T09:24:54;97331.78;;;12.92;47.30
76156;BME280;64906;51.290;7.348;2024-03-02T09:27:20;97341.25;;;12.95;47.36
76156;BME280;64906;51.290;7.348;2024-03-02T09:29:45;97334.47;;;12.97;47.22
76156;BME280;64906;51.290;7.348;2024-03-02T09:32:12;97326.63;;;12.96;47.17
76156;BME280;64906;51.290;7.348;2024-03-02T09:34:38;97318.69;;;13.09;46.96
76156;BME280;64906;51.290;7.348;2024-03-02T09:37:03;97327.34;;;13.16;46.71
76156;BME280;64906;51.290;7.348;2024-03-02T09:39:29;97321.94;;;13.11;46.83
76156;BME280;64906;51.290;7.348;2024-03-02T09:41:55;97315.22;;;13.09;46.91
76156;BME280;64906;51.290;7.348;2024-03-02T09:44:20;97329.53;;;13.09;46.86
76156;BME280;64906;51.290;7.348;2024-03-02T09:46:50;97327.94;;;13.08;46.89
76156;BME280;64906;51.290;7.348;2024-03-02T09:49:16;97327.09;;;13.13;46.83
76156;BME280;64906;51.290;7.348;2024-03-02T09:51:46;97330.03;;;13.21;46.59
76156;BME280;64906;51.290;7.348;2024-03-02T09:54:12;97322.69;;;13.27;46.61
76156;BME280;64906;51.290;7.348;2024-03-02T09:56:38;97324.25;;;13.33;46.28
76156;BME280;64906;51.290;7.348;2024-03-02T09:59:04;97326.16;;;13.32;46.53
76156;BME280;64906;51.290;7.348;2024-03-02T10:01:30;97324.78;;;13.35;46.37
76156;BME280;64906;51.290;7.348;2024-03-02T10:03:59;97326.94;;;13.38;46.47
76156;BME280;64906;51.290;7.348;2024-03-02T10:06:25;97325.31;;;13.37;46.47
76156;BME280;64906;51.290;7.348;2024-03-02T10:08:52;97325.31;;;13.37;46.42
76156;BME280;64906;51.290;7.348;2024-03-02T10:11:30;97321.25;;;13.34;46.39
76156;BME280;64906;51.290;7.348;2024-03-02T10:14:13;97317.19;;;13.37;46.59
76156;BME280;64906;51.290;7.348;2024-03-02T10:16:43;97331.28;;;13.34;46.48
76156;BME280;64906;51.290;7.348;2024-03-02T10:19:15;97324.50;;;13.36;46.55
76156;BME280;64906;51.290;7.348;2024-03-02T10:21:42;97326.94;;;13.38;46.25
76156;BME280;64906;51.290;7.348;2024-03-02T10:24:07;97325.53;;;13.40;46.31
76156;BME280;64906;51.290;7.348;2024-03-02T10:26:33;97328.50;;;13.44;46.20
76156;BME280;64906;51.290;7.348;2024-03-02T10:28:58;97329.88;;;13.46;46.23
76156;BME280;64906;51.290;7.348;2024-03-02T10:31:25;97329.88;;;13.46;46.26
76156;BME280;64906;51.290;7.348;2024-03-02T10:33:54;97323.59;;;13.51;46.11
76156;BME280;64906;51.290;7.348;2024-03-02T10:36:19;97331.97;;;13.55;46.02
76156;BME280;64906;51.290;7.348;2024-03-02T10:38:45;97334.94;;;13.58;45.93
76156;BME280;64906;51.290;7.348;2024-03-02T10:41:19;97331.94;;;13.60;45.96
76156;BME280;64906;51.290;7.348;2024-03-02T10:43:46;97322.69;;;13.61;45.96
76156;BME280;64906;51.290;7.348;2024-03-02T10:46:12;97319.41;;;13.64;45.78
76156;BME280;64906;51.290;7.348;2024-03-02T10:48:40;97328.91;;;13.66;45.87
76156;BME280;64906;51.290;7.348;2024-03-02T10:51:06;97324.28;;;13.67;45.88
76156;BME280;64906;51.290;7.348;2024-03-02T10:53:32;97324.50;;;13.70;45.83
76156;BME280;64906;51.290;7.348;2024-03-02T10:55:58;97319.28;;;13.79;45.55
76156;BME280;64906;51.290;7.348;2024-03-02T10:58:32;97322.78;;;13.84;45.51
76156;BME280;64906;51.290;7.348;2024-03-02T11:01:02;97314.06;;;13.87;45.33
76156;BME280;64906;51.290;7.348;2024-03-02T11:03:33;97308.06;;;13.90;45.32
76156;BME280;64906;51.290;7.348;2024-03-02T11:05:59;97301.00;;;13.94;45.29
76156;BME280;64906;51.290;7.348;2024-03-02T11:08:26;97297.19;;;13.95;45.10
76156;BME280;64906;51.290;7.348;2024-03-02T11:11:07;97299.25;;;14.03;45.15
76156;BME280;64906;51.290;7.348;2024-03-02T11:13:37;97307.94;;;14.05;44.95
76156;BME280;64906;51.290;7.348;2024-03-02T11:16:09;97300.38;;;14.02;44.89
76156;BME280;64906;51.290;7.348;2024-03-02T11:18:38;97309.03;;;14.04;44.88
76156;BME280;64906;51.290;7.348;2024-03-02T11:21:05;97294.91;;;14.07;44.95
76156;BME280;64906;51.290;7.348;2024-03-02T11:23:34;97298.41;;;14.08;44.93
76156;BME280;64906;51.290;7.348;2024-03-02T11:28:46;97296.44;;;14.13;44.73
76156;BME280;64906;51.290;7.348;2024-03-02T11:31:12;97300.00;;;14.14;44.82
76156;BME280;64906;51.290;7.348;2024-03-02T11:33:37;97305.75;;;14.07;44.97
76156;BME280;64906;51.290;7.348;2024-03-02T11:36:03;97308.19;;;14.09;45.00
76156;BME280;64906;51.290;7.348;2024-03-02T11:38:30;97300.56;;;14.11;44.86
76156;BME280;64906;51.290;7.348;2024-03-02T11:40:59;97306.50;;;14.13;44.93
76156;BME280;64906;51.290;7.348;2024-03-02T11:43:25;97308.91;;;14.14;44.85
76156;BME280;64906;51.290;7.348;2024-03-02T11:46:03;97305.41;;;14.14;44.85
76156;BME280;64906;51.290;7.348;2024-03-02T11:48:32;97301.81;;;14.18;44.88
76156;BME280;64906;51.290;7.348;2024-03-02T11:50:58;97303.97;;;14.21;44.78
76156;BME280;64906;51.290;7.348;2024-03-02T11:53:27;97298.53;;;14.21;44.75
76156;BME280;64906;51.290;7.348;2024-03-02T11:55:58;97306.97;;;14.20;44.89
76156;BME280;64906;51.290;7.348;2024-03-02T11:58:23;97295.59;;;14.18;44.83
76156;BME280;64906;51.290;7.348;2024-03-02T12:00:56;97298.81;;;14.25;44.64
76156;BME280;64906;51.290;7.348;2024-03-02T12:03:22;97287.06;;;14.29;44.55
76156;BME280;64906;51.290;7.348;2024-03-02T12:05:52;97302.06;;;14.22;44.66
76156;BME280;64906;51.290;7.348;2024-03-02T12:08:18;97289.88;;;14.19;44.79
76156;BME280;64906;51.290;7.348;2024-03-02T12:10:55;97296.91;;;14.25;44.68
76156;BME280;64906;51.290;7.348;2024-03-02T12:13:22;97287.94;;;14.25;44.85
76156;BME280;64906;51.290;7.348;2024-03-02T12:15:47;97285.19;;;14.30;44.59
76156;BME280;64906;51.290;7.348;2024-03-02T12:18:13;97286.00;;;14.30;44.45
76156;BME280;64906;51.290;7.348;2024-03-02T12:20:38;97281.94;;;14.28;44.63
76156;BME280;64906;51.290;7.348;2024-03-02T12:23:04;97291.63;;;14.34;44.40
76156;BME280;64906;51.290;7.348;2024-03-02T12:25:31;97289.97;;;14.38;44.46
76156;BME280;64906;51.290;7.348;2024-03-02T12:27:59;97291.03;;;14.42;44.27
76156;BME280;64906;51.290;7.348;2024-03-02T12:30:27;97291.75;;;14.47;44.14
76156;BME280;64906;51.290;7.348;2024-03-02T12:32:54;97284.13;;;14.49;44.13
76156;BME280;64906;51.290;7.348;2024-03-02T12:35:19;97282.09;;;14.60;43.91
76156;BME280;64906;51.290;7.348;2024-03-02T12:37:49;97278.19;;;14.71;43.70
76156;BME280;64906;51.290;7.348;2024-03-02T12:40:17;97274.34;;;14.72;43.71
76156;BME280;64906;51.290;7.348;2024-03-02T12:42:44;97275.75;;;14.69;43.69
76156;BME280;64906;51.290;7.348;2024-03-02T12:45:11;97275.81;;;14.64;43.78
76156;BME280;64906;51.290;7.348;2024-03-02T12:47:37;97270.44;;;14.59;44.04
76156;BME280;64906;51.290;7.348;2024-03-02T12:50:03;97271.53;;;14.58;43.93
76156;BME280;64906;51.290;7.348;2024-03-02T12:52:29;97270.97;;;14.61;43.84
76156;BME280;64906;51.290;7.348;2024-03-02T12:54:55;97276.09;;;14.63;44.01
76156;BME280;64906;51.290;7.348;2024-03-02T12:57:28;97277.13;;;14.67;43.81
76156;BME280;64906;51.290;7.348;2024-03-02T13:00:06;97274.34;;;14.72;43.82